sensor_id;sensor_type;location;lat;lon;timestamp;P1;durP1;ratioP1;P2;durP2;ratioP2
30380;SDS011;17169;50.966;11.038;2023-02-04T00:00:05;19.55;;;2.55;;
30380;SDS011;17169;50.966;11.038;2023-02-04T00:03:10;17.00;;;2.10;;
30380;SDS011;17169;50.966;11.038;2023-02-04T00:06:12;13.20;;;2.33;;
30380;SDS011;17169;50.966;11.038;2023-02-04T00:09:14;13.50;;;2.10;;
30380;SDS011;17169;50.966;11.038;2023-02-04T00:12:17;17.92;;;2.53;;
30380;SDS011;17169;50.966;11.038;2023-02-04T00:15:19;15.80;;;2.55;;
30380;SDS011;17169;50.966;11.038;2023-02-04T00:18:24;8.32;;;2.47;;
30380;SDS011;17169;50.966;11.038;2023-02-04T00:21:26;20.35;;;2.97;;
30380;SDS011;17169;50.966;11.038;2023-02-04T00:24:28;13.02;;;2.80;;
30380;SDS011;17169;50.966;11.038;2023-02-04T00:27:31;10.13;;;1.85;;
30380;SDS011;17169;50.966;11.038;2023-02-04T00:30:33;19.38;;;2.97;;
30380;SDS011;17169;50.966;11.038;2023-02-04T00:33:37;15.05;;;2.28;;
30380;SDS011;17169;50.966;11.038;2023-02-04T00:36:42;15.18;;;2.38;;
30380;SDS011;17169;50.966;11.038;2023-02-04T00:39:44;15.90;;;2.80;;
30380;SDS011;17169;50.966;11.038;2023-02-04T00:42:47;20.38;;;3.10;;
30380;SDS011;17169;50.966;11.038;2023-02-04T00:45:49;19.00;;;2.38;;
30380;SDS011;17169;50.966;11.038;2023-02-04T00:48:53;21.35;;;2.58;;
30380;SDS011;17169;50.966;11.038;2023-02-04T00:51:55;9.02;;;2.35;;
30380;SDS011;17169;50.966;11.038;2023-02-04T00:54:57;13.70;;;2.88;;
30380;SDS011;17169;50.966;11.038;2023-02-04T00:58:00;19.63;;;2.88;;
30380;SDS011;17169;50.966;11.038;2023-02-04T01:01:02;16.25;;;2.50;;
30380;SDS011;17169;50.966;11.038;2023-02-04T01:04:06;16.35;;;2.35;;
30380;SDS011;17169;50.966;11.038;2023-02-04T01:07:09;13.95;;;2.80;;
30380;SDS011;17169;50.966;11.038;2023-02-04T01:10:11;26.02;;;3.75;;
30380;SDS011;17169;50.966;11.038;2023-02-04T01:13:14;14.98;;;3.42;;
30380;SDS011;17169;50.966;11.038;2023-02-04T01:16:17;20.48;;;3.08;;
30380;SDS011;17169;50.966;11.038;2023-02-04T01:19:21;22.17;;;3.35;;
30380;SDS011;17169;50.966;11.038;2023-02-04T01:22:23;22.52;;;4.32;;
30380;SDS011;17169;50.966;11.038;2023-02-04T01:25:25;25.33;;;3.28;;
30380;SDS011;17169;50.966;11.038;2023-02-04T01:28:28;16.17;;;2.30;;
30380;SDS011;17169;50.966;11.038;2023-02-04T01:31:30;18.35;;;3.05;;
30380;SDS011;17169;50.966;11.038;2023-02-04T01:34:34;20.52;;;3.25;;
30380;SDS011;17169;50.966;11.038;2023-02-04T01:37:37;19.67;;;4.18;;
30380;SDS011;17169;50.966;11.038;2023-02-04T01:40:39;23.63;;;3.25;;
30380;SDS011;17169;50.966;11.038;2023-02-04T01:43:42;20.02;;;2.60;;
30380;SDS011;17169;50.966;11.038;2023-02-04T01:46:44;16.45;;;3.25;;
30380;SDS011;17169;50.966;11.038;2023-02-04T01:49:49;17.55;;;2.70;;
30380;SDS011;17169;50.966;11.038;2023-02-04T01:52:53;20.98;;;2.70;;
30380;SDS011;17169;50.966;11.038;2023-02-04T01:55:55;19.50;;;3.08;;
30380;SDS011;17169;50.966;11.038;2023-02-04T01:58:58;12.95;;;2.80;;
30380;SDS011;17169;50.966;11.038;2023-02-04T02:02:00;23.52;;;3.20;;
30380;SDS011;17169;50.966;11.038;2023-02-04T02:05:04;21.65;;;3.42;;
30380;SDS011;17169;50.966;11.038;2023-02-04T02:08:07;15.60;;;3.03;;
30380;SDS011;17169;50.966;11.038;2023-02-04T02:11:10;15.38;;;2.78;;
30380;SDS011;17169;50.966;11.038;2023-02-04T02:14:13;14.57;;;3.08;;
30380;SDS011;17169;50.966;11.038;2023-02-04T02:17:15;20.27;;;2.45;;
30380;SDS011;17169;50.966;11.038;2023-02-04T02:20:20;26.00;;;3.70;;
30380;SDS011;17169;50.966;11.038;2023-02-04T02:23:25;11.80;;;3.33;;
30380;SDS011;17169;50.966;11.038;2023-02-04T02:26:45;20.75;;;3.10;;
30380;SDS011;17169;50.966;11.038;2023-02-04T02:29:47;12.40;;;2.63;;
30380;SDS011;17169;50.966;11.038;2023-02-04T02:32:50;8.18;;;1.50;;
30380;SDS011;17169;50.966;11.038;2023-02-04T02:35:53;1.85;;;1.13;;
30380;SDS011;17169;50.966;11.038;2023-02-04T02:38:57;3.03;;;1.00;;
30380;SDS011;17169;50.966;11.038;2023-02-04T02:41:59;5.45;;;0.90;;
30380;SDS011;17169;50.966;11.038;2023-02-04T02:45:03;3.67;;;0.85;;
30380;SDS011;17169;50.966;11.038;2023-02-04T02:48:09;1.63;;;1.02;;
30380;SDS011;17169;50.966;11.038;2023-02-04T02:51:12;2.30;;;0.90;;
30380;SDS011;17169;50.966;11.038;2023-02-04T02:54:18;0.82;;;0.75;;
30380;SDS011;17169;50.966;11.038;2023-02-04T02:57:23;1.02;;;0.57;;
30380;SDS011;17169;50.966;11.038;2023-02-04T03:00:27;1.85;;;0.90;;
30380;SDS011;17169;50.966;11.038;2023-02-04T03:03:30;1.27;;;1.00;;
30380;SDS011;17169;50.966;11.038;2023-02-04T03:06:36;1.92;;;0.93;;
30380;SDS011;17169;50.966;11.038;2023-02-04T03:09:40;0.60;;;0.60;;
30380;SDS011;17169;50.966;11.038;2023-02-04T03:12:42;0.60;;;0.60;;
30380;SDS011;17169;50.966;11.038;2023-02-04T03:15:46;0.88;;;0.80;;
30380;SDS011;17169;50.966;11.038;2023-02-04T03:18:49;2.67;;;0.85;;
30380;SDS011;17169;50.966;11.038;2023-02-04T03:21:51;1.13;;;0.80;;
30380;SDS011;17169;50.966;11.038;2023-02-04T03:24:56;1.85;;;0.73;;
30380;SDS011;17169;50.966;11.038;2023-02-04T03:27:58;2.42;;;0.90;;
30380;SDS011;17169;50.966;11.038;2023-02-04T03:31:01;1.50;;;0.90;;
30380;SDS011;17169;50.966;11.038;2023-02-04T03:34:03;1.48;;;0.73;;
30380;SDS011;17169;50.966;11.038;2023-02-04T03:37:06;1.67;;;0.80;;
30380;SDS011;17169;50.966;11.038;2023-02-04T03:40:11;1.42;;;0.90;;
30380;SDS011;17169;50.966;11.038;2023-02-04T03:43:13;1.13;;;0.90;;
30380;SDS011;17169;50.966;11.038;2023-02-04T03:46:16;1.92;;;1.00;;
30380;SDS011;17169;50.966;11.038;2023-02-04T03:49:18;1.42;;;1.00;;
30380;SDS011;17169;50.966;11.038;2023-02-04T03:52:20;2.47;;;1.10;;
30380;SDS011;17169;50.966;11.038;2023-02-04T03:58:38;2.65;;;1.10;;
30380;SDS011;17169;50.966;11.038;2023-02-04T04:01:40;1.08;;;0.88;;
30380;SDS011;17169;50.966;11.038;2023-02-04T04:04:43;3.45;;;2.05;;
30380;SDS011;17169;50.966;11.038;2023-02-04T04:07:45;2.20;;;1.38;;
30380;SDS011;17169;50.966;11.038;2023-02-04T04:10:47;2.75;;;1.20;;
30380;SDS011;17169;50.966;11.038;2023-02-04T04:13:51;1.92;;;1.17;;
30380;SDS011;17169;50.966;11.038;2023-02-04T04:16:53;2.35;;;1.40;;
30380;SDS011;17169;50.966;11.038;2023-02-04T04:19:56;1.70;;;1.10;;
30380;SDS011;17169;50.966;11.038;2023-02-04T04:22:58;2.25;;;1.33;;
30380;SDS011;17169;50.966;11.038;2023-02-04T04:26:00;2.10;;;1.40;;
30380;SDS011;17169;50.966;11.038;2023-02-04T04:29:04;2.83;;;1.42;;
30380;SDS011;17169;50.966;11.038;2023-02-04T04:32:06;2.47;;;1.42;;
30380;SDS011;17169;50.966;11.038;2023-02-04T04:35:09;2.45;;;1.50;;
30380;SDS011;17169;50.966;11.038;2023-02-04T04:38:12;2.20;;;1.30;;
30380;SDS011;17169;50.966;11.038;2023-02-04T04:41:14;2.78;;;1.52;;
30380;SDS011;17169;50.966;11.038;2023-02-04T04:44:18;3.90;;;1.88;;
30380;SDS011;17169;50.966;11.038;2023-02-04T04:47:20;2.47;;;1.40;;
30380;SDS011;17169;50.966;11.038;2023-02-04T04:50:22;2.30;;;1.30;;
30380;SDS011;17169;50.966;11.038;2023-02-04T04:53:25;3.00;;;2.17;;
30380;SDS011;17169;50.966;11.038;2023-02-04T04:56:27;3.72;;;1.50;;
30380;SDS011;17169;50.966;11.038;2023-02-04T04:59:31;2.25;;;1.65;;
30380;SDS011;17169;50.966;11.038;2023-02-04T05:02:33;2.45;;;1.23;;
30380;SDS011;17169;50.966;11.038;2023-02-04T05:05:36;2.97;;;1.80;;
30380;SDS011;17169;50.966;11.038;2023-02-04T05:08:40;6.47;;;1.67;;
30380;SDS011;17169;50.966;11.038;2023-02-04T05:11:42;4.88;;;2.90;;
30380;SDS011;17169;50.966;11.038;2023-02-04T05:14:46;6.10;;;1.50;;
30380;SDS011;17169;50.966;11.038;2023-02-04T05:17:48;2.63;;;1.40;;
30380;SDS011;17169;50.966;11.038;2023-02-04T05:20:51;2.83;;;1.48;;
30380;SDS011;17169;50.966;11.038;2023-02-04T05:23:53;4.20;;;1.60;;
30380;SDS011;17169;50.966;11.038;2023-02-04T05:26:55;3.25;;;1.25;;
30380;SDS011;17169;50.966;11.038;2023-02-04T05:29:59;3.92;;;1.25;;
30380;SDS011;17169;50.966;11.038;2023-02-04T05:33:02;2.08;;;1.50;;
30380;SDS011;17169;50.966;11.038;2023-02-04T05:36:04;2.80;;;1.48;;
30380;SDS011;17169;50.966;11.038;2023-02-04T05:39:07;2.53;;;1.40;;
30380;SDS011;17169;50.966;11.038;2023-02-04T05:42:09;3.20;;;1.70;;
30380;SDS011;17169;50.966;11.038;2023-02-04T05:45:14;2.97;;;1.40;;
30380;SDS011;17169;50.966;11.038;2023-02-04T05:48:18;3.58;;;1.88;;
30380;SDS011;17169;50.966;11.038;2023-02-04T05:51:20;5.38;;;1.40;;
30380;SDS011;17169;50.966;11.038;2023-02-04T05:54:23;3.47;;;1.50;;
30380;SDS011;17169;50.966;11.038;2023-02-04T05:57:25;3.65;;;1.80;;
30380;SDS011;17169;50.966;11.038;2023-02-04T06:00:29;4.18;;;1.50;;
30380;SDS011;17169;50.966;11.038;2023-02-04T06:03:31;3.53;;;1.67;;
30380;SDS011;17169;50.966;11.038;2023-02-04T06:06:34;5.18;;;1.80;;
30380;SDS011;17169;50.966;11.038;2023-02-04T06:09:36;5.15;;;1.73;;
30380;SDS011;17169;50.966;11.038;2023-02-04T06:12:38;2.85;;;1.85;;
30380;SDS011;17169;50.966;11.038;2023-02-04T06:15:42;5.30;;;2.00;;
30380;SDS011;17169;50.966;11.038;2023-02-04T06:18:44;3.78;;;1.65;;
30380;SDS011;17169;50.966;11.038;2023-02-04T06:21:47;3.53;;;1.88;;
30380;SDS011;17169;50.966;11.038;2023-02-04T06:24:49;3.05;;;1.70;;
30380;SDS011;17169;50.966;11.038;2023-02-04T06:27:52;3.47;;;1.80;;
30380;SDS011;17169;50.966;11.038;2023-02-04T06:30:55;3.13;;;1.70;;
30380;SDS011;17169;50.966;11.038;2023-02-04T06:33:58;3.10;;;1.75;;
30380;SDS011;17169;50.966;11.038;2023-02-04T06:37:00;4.28;;;1.65;;
30380;SDS011;17169;50.966;11.038;2023-02-04T06:40:02;4.85;;;1.90;;
30380;SDS011;17169;50.966;11.038;2023-02-04T06:43:05;4.18;;;2.35;;
30380;SDS011;17169;50.966;11.038;2023-02-04T06:46:09;7.07;;;2.40;;
30380;SDS011;17169;50.966;11.038;2023-02-04T06:49:11;5.10;;;1.90;;
30380;SDS011;17169;50.966;11.038;2023-02-04T06:52:14;5.28;;;1.88;;
30380;SDS011;17169;50.966;11.038;2023-02-04T06:55:16;6.22;;;1.90;;
30380;SDS011;17169;50.966;11.038;2023-02-04T06:58:19;4.28;;;1.80;;
30380;SDS011;17169;50.966;11.038;2023-02-04T07:01:22;4.25;;;1.60;;
30380;SDS011;17169;50.966;11.038;2023-02-04T07:04:25;3.35;;;1.70;;
30380;SDS011;17169;50.966;11.038;2023-02-04T07:07:27;4.25;;;1.95;;
30380;SDS011;17169;50.966;11.038;2023-02-04T07:10:30;5.72;;;2.25;;
30380;SDS011;17169;50.966;11.038;2023-02-04T07:13:32;3.83;;;2.10;;
30380;SDS011;17169;50.966;11.038;2023-02-04T07:16:36;4.35;;;2.00;;
30380;SDS011;17169;50.966;11.038;2023-02-04T07:19:38;4.95;;;2.72;;
30380;SDS011;17169;50.966;11.038;2023-02-04T07:22:41;4.43;;;2.03;;
30380;SDS011;17169;50.966;11.038;2023-02-04T07:25:43;4.45;;;2.15;;
30380;SDS011;17169;50.966;11.038;2023-02-04T07:28:45;2.50;;;1.58;;
30380;SDS011;17169;50.966;11.038;2023-02-04T07:31:49;6.43;;;2.95;;
30380;SDS011;17169;50.966;11.038;2023-02-04T07:34:52;3.17;;;1.75;;
30380;SDS011;17169;50.966;11.038;2023-02-04T07:37:54;6.22;;;2.35;;
30380;SDS011;17169;50.966;11.038;2023-02-04T07:40:56;9.52;;;2.45;;
30380;SDS011;17169;50.966;11.038;2023-02-04T07:43:59;3.50;;;1.52;;
30380;SDS011;17169;50.966;11.038;2023-02-04T07:47:03;3.60;;;1.70;;
30380;SDS011;17169;50.966;11.038;2023-02-04T07:50:05;2.35;;;1.27;;
30380;SDS011;17169;50.966;11.038;2023-02-04T07:53:08;3.67;;;1.85;;
30380;SDS011;17169;50.966;11.038;2023-02-04T07:56:10;3.67;;;1.58;;
30380;SDS011;17169;50.966;11.038;2023-02-04T07:59:12;4.13;;;1.90;;
30380;SDS011;17169;50.966;11.038;2023-02-04T08:02:16;11.02;;;4.57;;
30380;SDS011;17169;50.966;11.038;2023-02-04T08:05:19;4.88;;;2.28;;
30380;SDS011;17169;50.966;11.038;2023-02-04T08:08:21;4.55;;;2.35;;
30380;SDS011;17169;50.966;11.038;2023-02-04T08:11:23;6.10;;;1.73;;
30380;SDS011;17169;50.966;11.038;2023-02-04T08:14:26;4.60;;;1.80;;
30380;SDS011;17169;50.966;11.038;2023-02-04T08:17:30;5.53;;;2.00;;
30380;SDS011;17169;50.966;11.038;2023-02-04T08:20:32;3.53;;;2.13;;
30380;SDS011;17169;50.966;11.038;2023-02-04T08:23:34;7.70;;;2.50;;
30380;SDS011;17169;50.966;11.038;2023-02-04T08:26:41;4.57;;;2.30;;
30380;SDS011;17169;50.966;11.038;2023-02-04T08:29:44;4.53;;;2.10;;
30380;SDS011;17169;50.966;11.038;2023-02-04T08:32:48;5.25;;;2.35;;
30380;SDS011;17169;50.966;11.038;2023-02-04T08:35:51;3.45;;;1.70;;
30380;SDS011;17169;50.966;11.038;2023-02-04T08:38:53;9.23;;;2.40;;
30380;SDS011;17169;50.966;11.038;2023-02-04T08:41:55;3.63;;;2.03;;
30380;SDS011;17169;50.966;11.038;2023-02-04T08:44:58;4.15;;;1.77;;
30380;SDS011;17169;50.966;11.038;2023-02-04T08:48:02;4.63;;;2.33;;
30380;SDS011;17169;50.966;11.038;2023-02-04T08:51:04;6.13;;;2.08;;
30380;SDS011;17169;50.966;11.038;2023-02-04T08:54:07;4.20;;;1.60;;
30380;SDS011;17169;50.966;11.038;2023-02-04T08:57:09;4.20;;;1.63;;
30380;SDS011;17169;50.966;11.038;2023-02-04T09:00:12;2.70;;;1.42;;
30380;SDS011;17169;50.966;11.038;2023-02-04T09:03:16;3.53;;;1.70;;
30380;SDS011;17169;50.966;11.038;2023-02-04T09:06:19;2.92;;;1.60;;
30380;SDS011;17169;50.966;11.038;2023-02-04T09:09:21;3.70;;;1.48;;
30380;SDS011;17169;50.966;11.038;2023-02-04T09:12:23;3.05;;;1.70;;
30380;SDS011;17169;50.966;11.038;2023-02-04T09:15:28;4.75;;;1.90;;
30380;SDS011;17169;50.966;11.038;2023-02-04T09:18:32;3.75;;;1.50;;
30380;SDS011;17169;50.966;11.038;2023-02-04T09:21:34;5.70;;;2.03;;
30380;SDS011;17169;50.966;11.038;2023-02-04T09:24:36;5.40;;;2.28;;
30380;SDS011;17169;50.966;11.038;2023-02-04T09:27:39;4.30;;;2.10;;
30380;SDS011;17169;50.966;11.038;2023-02-04T09:30:42;3.45;;;1.88;;
30380;SDS011;17169;50.966;11.038;2023-02-04T09:33:47;6.55;;;1.85;;
30380;SDS011;17169;50.966;11.038;2023-02-04T09:36:49;5.38;;;2.22;;
30380;SDS011;17169;50.966;11.038;2023-02-04T09:39:51;2.38;;;1.40;;
30380;SDS011;17169;50.966;11.038;2023-02-04T09:42:54;2.80;;;1.63;;
30380;SDS011;17169;50.966;11.038;2023-02-04T09:45:57;3.90;;;1.70;;
30380;SDS011;17169;50.966;11.038;2023-02-04T09:49:01;3.42;;;1.88;;
30380;SDS011;17169;50.966;11.038;2023-02-04T09:52:04;3.07;;;1.80;;
30380;SDS011;17169;50.966;11.038;2023-02-04T09:55:12;3.65;;;1.58;;
30380;SDS011;17169;50.966;11.038;2023-02-04T09:58:15;2.50;;;1.40;;
30380;SDS011;17169;50.966;11.038;2023-02-04T10:01:19;1.73;;;1.10;;
30380;SDS011;17169;50.966;11.038;2023-02-04T10:04:23;5.07;;;2.42;;
30380;SDS011;17169;50.966;11.038;2023-02-04T10:07:26;3.55;;;1.75;;
30380;SDS011;17169;50.966;11.038;2023-02-04T10:10:29;2.60;;;1.52;;
30380;SDS011;17169;50.966;11.038;2023-02-04T10:13:32;2.72;;;1.50;;
30380;SDS011;17169;50.966;11.038;2023-02-04T10:16:37;3.78;;;1.45;;
30380;SDS011;17169;50.966;11.038;2023-02-04T10:22:46;3.92;;;1.70;;
30380;SDS011;17169;50.966;11.038;2023-02-04T10:25:50;4.60;;;1.88;;
30380;SDS011;17169;50.966;11.038;2023-02-04T10:28:56;6.05;;;1.15;;
30380;SDS011;17169;50.966;11.038;2023-02-04T10:32:00;4.80;;;1.35;;
30380;SDS011;17169;50.966;11.038;2023-02-04T10:35:04;5.72;;;1.60;;
30380;SDS011;17169;50.966;11.038;2023-02-04T10:38:08;2.33;;;1.00;;
30380;SDS011;17169;50.966;11.038;2023-02-04T10:41:11;2.55;;;1.20;;
30380;SDS011;17169;50.966;11.038;2023-02-04T10:44:16;2.65;;;1.00;;
30380;SDS011;17169;50.966;11.038;2023-02-04T10:50:26;3.45;;;0.98;;
30380;SDS011;17169;50.966;11.038;2023-02-04T10:53:29;1.85;;;1.00;;
30380;SDS011;17169;50.966;11.038;2023-02-04T10:56:50;4.20;;;1.00;;
30380;SDS011;17169;50.966;11.038;2023-02-04T10:59:52;5.78;;;1.45;;
30380;SDS011;17169;50.966;11.038;2023-02-04T11:02:57;3.05;;;1.30;;
30380;SDS011;17169;50.966;11.038;2023-02-04T11:06:08;4.00;;;1.20;;
30380;SDS011;17169;50.966;11.038;2023-02-04T11:09:13;4.15;;;1.70;;
30380;SDS011;17169;50.966;11.038;2023-02-04T11:12:19;5.28;;;1.67;;
30380;SDS011;17169;50.966;11.038;2023-02-04T11:15:41;2.50;;;1.30;;
30380;SDS011;17169;50.966;11.038;2023-02-04T11:18:47;2.45;;;1.30;;
30380;SDS011;17169;50.966;11.038;2023-02-04T11:21:52;2.92;;;1.27;;
30380;SDS011;17169;50.966;11.038;2023-02-04T11:32:25;2.67;;;1.20;;
30380;SDS011;17169;50.966;11.038;2023-02-04T11:35:31;5.55;;;1.40;;
30380;SDS011;17169;50.966;11.038;2023-02-04T11:38:35;7.60;;;1.48;;
30380;SDS011;17169;50.966;11.038;2023-02-04T11:41:38;3.10;;;1.42;;
30380;SDS011;17169;50.966;11.038;2023-02-04T11:44:51;3.10;;;1.38;;
30380;SDS011;17169;50.966;11.038;2023-02-04T11:47:55;2.38;;;1.35;;
30380;SDS011;17169;50.966;11.038;2023-02-04T11:50:59;4.45;;;1.27;;
30380;SDS011;17169;50.966;11.038;2023-02-04T11:54:05;3.92;;;1.30;;
30380;SDS011;17169;50.966;11.038;2023-02-04T12:00:12;2.17;;;1.33;;
30380;SDS011;17169;50.966;11.038;2023-02-04T12:03:23;4.87;;;2.03;;
30380;SDS011;17169;50.966;11.038;2023-02-04T12:06:27;2.92;;;1.40;;
30380;SDS011;17169;50.966;11.038;2023-02-04T12:09:35;3.40;;;1.33;;
30380;SDS011;17169;50.966;11.038;2023-02-04T12:12:48;4.10;;;1.20;;
30380;SDS011;17169;50.966;11.038;2023-02-04T12:15:53;5.13;;;1.40;;
30380;SDS011;17169;50.966;11.038;2023-02-04T12:18:58;6.00;;;1.38;;
30380;SDS011;17169;50.966;11.038;2023-02-04T12:22:00;3.38;;;1.30;;
30380;SDS011;17169;50.966;11.038;2023-02-04T12:25:04;5.43;;;1.50;;
30380;SDS011;17169;50.966;11.038;2023-02-04T12:28:07;2.15;;;1.20;;
30380;SDS011;17169;50.966;11.038;2023-02-04T12:31:10;2.70;;;1.50;;
30380;SDS011;17169;50.966;11.038;2023-02-04T12:34:12;5.35;;;1.88;;
30380;SDS011;17169;50.966;11.038;2023-02-04T12:37:16;5.10;;;1.50;;
30380;SDS011;17169;50.966;11.038;2023-02-04T12:40:20;3.50;;;1.45;;
30380;SDS011;17169;50.966;11.038;2023-02-04T12:43:23;1.95;;;1.10;;
30380;SDS011;17169;50.966;11.038;2023-02-04T12:46:26;2.70;;;1.20;;
30380;SDS011;17169;50.966;11.038;2023-02-04T12:49:28;3.08;;;1.20;;
30380;SDS011;17169;50.966;11.038;2023-02-04T12:52:31;3.53;;;1.25;;
30380;SDS011;17169;50.966;11.038;2023-02-04T12:55:35;1.60;;;1.05;;
30380;SDS011;17169;50.966;11.038;2023-02-04T12:58:37;2.83;;;1.30;;
30380;SDS011;17169;50.966;11.038;2023-02-04T13:01:39;3.42;;;1.42;;
30380;SDS011;17169;50.966;11.038;2023-02-04T13:04:42;2.38;;;1.23;;
30380;SDS011;17169;50.966;11.038;2023-02-04T13:07:44;2.25;;;1.10;;
30380;SDS011;17169;50.966;11.038;2023-02-04T13:10:48;1.50;;;0.95;;
30380;SDS011;17169;50.966;11.038;2023-02-04T13:13:51;2.83;;;1.73;;
30380;SDS011;17169;50.966;11.038;2023-02-04T13:16:53;1.85;;;1.08;;
30380;SDS011;17169;50.966;11.038;2023-02-04T13:19:56;2.33;;;1.13;;
30380;SDS011;17169;50.966;11.038;2023-02-04T13:22:58;2.20;;;1.00;;
30380;SDS011;17169;50.966;11.038;2023-02-04T13:26:02;2.75;;;0.98;;
30380;SDS011;17169;50.966;11.038;2023-02-04T13:29:04;4.38;;;1.10;;
30380;SDS011;17169;50.966;11.038;2023-02-04T13:32:06;2.78;;;0.90;;
30380;SDS011;17169;50.966;11.038;2023-02-04T13:35:09;2.55;;;0.90;;
30380;SDS011;17169;50.966;11.038;2023-02-04T13:38:11;2.47;;;0.93;;
30380;SDS011;17169;50.966;11.038;2023-02-04T13:41:15;2.83;;;1.30;;
30380;SDS011;17169;50.966;11.038;2023-02-04T13:44:17;3.85;;;1.63;;
30380;SDS011;17169;50.966;11.038;2023-02-04T13:47:20;4.68;;;1.95;;
30380;SDS011;17169;50.966;11.038;2023-02-04T13:50:22;5.03;;;1.60;;
30380;SDS011;17169;50.966;11.038;2023-02-04T13:53:24;4.05;;;1.42;;
30380;SDS011;17169;50.966;11.038;2023-02-04T13:56:31;2.65;;;1.50;;
30380;SDS011;17169;50.966;11.038;2023-02-04T13:59:34;5.53;;;1.70;;
30380;SDS011;17169;50.966;11.038;2023-02-04T14:02:36;2.90;;;1.60;;
30380;SDS011;17169;50.966;11.038;2023-02-04T14:05:39;3.95;;;1.95;;
30380;SDS011;17169;50.966;11.038;2023-02-04T14:08:41;2.78;;;1.65;;
30380;SDS011;17169;50.966;11.038;2023-02-04T14:11:45;5.25;;;1.40;;
30380;SDS011;17169;50.966;11.038;2023-02-04T14:14:47;4.60;;;1.40;;
30380;SDS011;17169;50.966;11.038;2023-02-04T14:17:50;4.97;;;1.40;;
30380;SDS011;17169;50.966;11.038;2023-02-04T14:20:52;5.20;;;1.50;;
30380;SDS011;17169;50.966;11.038;2023-02-04T14:23:54;2.75;;;1.40;;
30380;SDS011;17169;50.966;11.038;2023-02-04T14:26:58;2.97;;;1.20;;
30380;SDS011;17169;50.966;11.038;2023-02-04T14:30:03;4.15;;;1.70;;
30380;SDS011;17169;50.966;11.038;2023-02-04T14:33:06;2.00;;;1.05;;
30380;SDS011;17169;50.966;11.038;2023-02-04T14:36:09;3.63;;;1.92;;
30380;SDS011;17169;50.966;11.038;2023-02-04T14:39:11;2.55;;;1.38;;
30380;SDS011;17169;50.966;11.038;2023-02-04T14:42:15;4.32;;;1.45;;
30380;SDS011;17169;50.966;11.038;2023-02-04T14:45:17;6.07;;;1.40;;
30380;SDS011;17169;50.966;11.038;2023-02-04T14:48:20;3.10;;;1.40;;
30380;SDS011;17169;50.966;11.038;2023-02-04T14:51:22;4.22;;;1.40;;
30380;SDS011;17169;50.966;11.038;2023-02-04T14:54:25;2.28;;;1.40;;
30380;SDS011;17169;50.966;11.038;2023-02-04T14:57:28;3.92;;;1.60;;
30380;SDS011;17169;50.966;11.038;2023-02-04T15:00:31;3.53;;;1.70;;
30380;SDS011;17169;50.966;11.038;2023-02-04T15:03:33;2.70;;;1.30;;
30380;SDS011;17169;50.966;11.038;2023-02-04T15:06:36;5.10;;;1.55;;
30380;SDS011;17169;50.966;11.038;2023-02-04T15:09:38;2.78;;;1.40;;
30380;SDS011;17169;50.966;11.038;2023-02-04T15:12:43;3.63;;;1.27;;
30380;SDS011;17169;50.966;11.038;2023-02-04T15:15:45;2.60;;;1.10;;
30380;SDS011;17169;50.966;11.038;2023-02-04T15:18:48;3.08;;;1.30;;
30380;SDS011;17169;50.966;11.038;2023-02-04T15:21:50;2.30;;;1.25;;
30380;SDS011;17169;50.966;11.038;2023-02-04T15:24:53;3.55;;;1.17;;
30380;SDS011;17169;50.966;11.038;2023-02-04T15:27:57;3.22;;;1.35;;
30380;SDS011;17169;50.966;11.038;2023-02-04T15:30:59;4.68;;;2.03;;
30380;SDS011;17169;50.966;11.038;2023-02-04T15:34:03;2.92;;;1.17;;
30380;SDS011;17169;50.966;11.038;2023-02-04T15:37:06;4.45;;;1.30;;
30380;SDS011;17169;50.966;11.038;2023-02-04T15:40:10;4.17;;;1.27;;
30380;SDS011;17169;50.966;11.038;2023-02-04T15:43:14;1.52;;;1.15;;
30380;SDS011;17169;50.966;11.038;2023-02-04T15:46:16;1.52;;;1.13;;
30380;SDS011;17169;50.966;11.038;2023-02-04T15:49:19;5.28;;;1.75;;
30380;SDS011;17169;50.966;11.038;2023-02-04T15:52:21;4.18;;;1.73;;
30380;SDS011;17169;50.966;11.038;2023-02-04T15:55:23;2.35;;;1.30;;
30380;SDS011;17169;50.966;11.038;2023-02-04T15:58:27;5.95;;;1.30;;
30380;SDS011;17169;50.966;11.038;2023-02-04T16:01:29;2.00;;;1.20;;
30380;SDS011;17169;50.966;11.038;2023-02-04T16:04:32;5.40;;;1.75;;
30380;SDS011;17169;50.966;11.038;2023-02-04T16:07:34;3.50;;;1.42;;
30380;SDS011;17169;50.966;11.038;2023-02-04T16:10:37;2.80;;;1.45;;
30380;SDS011;17169;50.966;11.038;2023-02-04T16:13:40;5.60;;;1.73;;
30380;SDS011;17169;50.966;11.038;2023-02-04T16:16:43;3.65;;;1.60;;
30380;SDS011;17169;50.966;11.038;2023-02-04T16:19:45;5.35;;;1.75;;
30380;SDS011;17169;50.966;11.038;2023-02-04T16:22:48;4.07;;;1.30;;
30380;SDS011;17169;50.966;11.038;2023-02-04T16:25:50;2.95;;;1.65;;
30380;SDS011;17169;50.966;11.038;2023-02-04T16:28:54;2.63;;;1.30;;
30380;SDS011;17169;50.966;11.038;2023-02-04T16:31:56;5.22;;;2.17;;
30380;SDS011;17169;50.966;11.038;2023-02-04T16:34:59;2.88;;;1.80;;
30380;SDS011;17169;50.966;11.038;2023-02-04T16:38:03;4.88;;;2.20;;
30380;SDS011;17169;50.966;11.038;2023-02-04T16:41:06;5.32;;;2.47;;
30380;SDS011;17169;50.966;11.038;2023-02-04T16:44:10;6.93;;;2.70;;
30380;SDS011;17169;50.966;11.038;2023-02-04T16:47:12;5.75;;;2.45;;
30380;SDS011;17169;50.966;11.038;2023-02-04T16:50:14;6.15;;;2.85;;
30380;SDS011;17169;50.966;11.038;2023-02-04T16:53:18;7.25;;;3.00;;
30380;SDS011;17169;50.966;11.038;2023-02-04T16:56:21;6.75;;;2.90;;
30380;SDS011;17169;50.966;11.038;2023-02-04T16:59:25;5.70;;;3.15;;
30380;SDS011;17169;50.966;11.038;2023-02-04T17:02:27;6.82;;;3.10;;
30380;SDS011;17169;50.966;11.038;2023-02-04T17:05:30;7.50;;;4.00;;
30380;SDS011;17169;50.966;11.038;2023-02-04T17:08:32;7.88;;;3.72;;
30380;SDS011;17169;50.966;11.038;2023-02-04T17:11:35;10.18;;;4.40;;
30380;SDS011;17169;50.966;11.038;2023-02-04T17:14:39;8.32;;;4.22;;
30380;SDS011;17169;50.966;11.038;2023-02-04T17:17:41;9.75;;;3.80;;
30380;SDS011;17169;50.966;11.038;2023-02-04T17:20:44;9.70;;;3.53;;
30380;SDS011;17169;50.966;11.038;2023-02-04T17:23:46;10.38;;;3.65;;
30380;SDS011;17169;50.966;11.038;2023-02-04T17:26:49;11.27;;;3.92;;
30380;SDS011;17169;50.966;11.038;2023-02-04T17:29:52;8.10;;;3.92;;
30380;SDS011;17169;50.966;11.038;2023-02-04T17:32:55;8.25;;;4.65;;
30380;SDS011;17169;50.966;11.038;2023-02-04T17:35:57;8.70;;;3.53;;
30380;SDS011;17169;50.966;11.038;2023-02-04T17:39:00;7.05;;;3.55;;
30380;SDS011;17169;50.966;11.038;2023-02-04T17:42:02;8.27;;;3.92;;
30380;SDS011;17169;50.966;11.038;2023-02-04T17:45:07;12.10;;;4.25;;
30380;SDS011;17169;50.966;11.038;2023-02-04T17:48:11;12.30;;;4.40;;
30380;SDS011;17169;50.966;11.038;2023-02-04T17:51:13;7.13;;;3.25;;
30380;SDS011;17169;50.966;11.038;2023-02-04T17:54:16;10.75;;;4.05;;
30380;SDS011;17169;50.966;11.038;2023-02-04T17:57:19;14.55;;;5.88;;
30380;SDS011;17169;50.966;11.038;2023-02-04T18:00:24;18.38;;;6.82;;
30380;SDS011;17169;50.966;11.038;2023-02-04T18:03:28;11.55;;;4.80;;
30380;SDS011;17169;50.966;11.038;2023-02-04T18:06:30;8.73;;;3.92;;
30380;SDS011;17169;50.966;11.038;2023-02-04T18:09:32;10.32;;;4.32;;
30380;SDS011;17169;50.966;11.038;2023-02-04T18:12:35;8.23;;;4.35;;
30380;SDS011;17169;50.966;11.038;2023-02-04T18:15:39;10.30;;;4.65;;
30380;SDS011;17169;50.966;11.038;2023-02-04T18:18:44;8.70;;;3.25;;
30380;SDS011;17169;50.966;11.038;2023-02-04T18:21:46;6.90;;;3.20;;
30380;SDS011;17169;50.966;11.038;2023-02-04T18:24:50;12.90;;;5.00;;